Weather at Puerto Estrella Airport

Public forecast

Using degrees Celsius for public forecast. Weather courtesy of forecast.io.

Closest aviation weather report (METAR) to Puerto Estrella Airport

Report is more than 6 hours old.

Closest report is Josefa Camejo International Airport, 75.6 nm (140.0 km) ESE. Retrieved 2020/10/02 10:00 UTC (1 year ago):

SVJC 021000Z NI CHECK TEXT NEW ENDING ADDED KATLYTAA

Closest aviation forecast (TAF) to Puerto Estrella Airport

Closest forecast is Josefa Camejo International Airport, 75.6 nm (140.0 km) ESE. Retrieved 2021/10/28 12:03 UTC (3 hours ago):

TAF TAF SVJC 281000Z 2812/2912 09012KT 9999 SCT016 TX35/2818Z TN22/2807Z BECMG 2810/2816 08004KT 9999 SCT013